Long Lake, NY (12847)

1:20 PM EST on February 07, 2016 (GMT -0500)
Adirondack Acres | | Change Station
CLOSE
Current Station
Personal Weather Station
Location: Long Lake, NY
Elevation: 1650 ft
Nearby Weather Stations

Elev 1650 ft 43.98 °N, 74.43 °W | Updated 0 second ago

Overcast
Overcast
33.6 °F
Feels Like 34 °F
N
0.0
Wind Variable Wind from South
Gusts 0.0 mph

Today
High -- | Low -- °F
--% Chance of Precip.
Yesterday
High -- | Low -- °F
Precip. -- in
Pressure 30.08 in
Visibility 10.0 miles
Clouds Overcast 2900 ft
Windchill 34 °F
Dew Point 17 °F
Humidity 50%
Rainfall 0.00 in
Snow Depth Not available.
7:08 AM 5:15 PM
Waning Crescent, 1% visible
METAR KSLK 071751Z AUTO VRB03KT 10SM OVC029 M01/M07 A3002 RMK AO2 SLP184 60000 T10061067 10000 21022 58007 $
Pressure 30.08 in
Visibility 10.0 miles
Clouds Overcast 2900 ft
Windchill 34 °F
Dew Point 17 °F
Humidity 50%
Rainfall 0.00 in
Snow Depth Not available.
7:08 AM 5:15 PM
Waning Crescent, 1% visible
METAR KSLK 071751Z AUTO VRB03KT 10SM OVC029 M01/M07 A3002 RMK AO2 SLP184 60000 T10061067 10000 21022 58007 $

10-Day Weather Forecast

Almanac

Astronomy

Feb. 07, 2016 Rise Set
Actual Time
Civil Twilight
Nautical Twilight
Astronomical Twilight
Moon
Length of Visible Light
Length of Day
Tomorrow will be .
, % of the Moon is Illuminated

Today's Extremes

State Highs State Lows

Community

WunderPhotos

Upload Photos

1,891,274 photos uploaded!

WunderBlog® & News

Nearby

Air Quality

  Air Quality AQ Index Pollutant
Not available.

Snow Depth

Station Depth Elevation

Earthquake Activity

City Distance Mag. Time & Date
Minimum magnitude displayed is 2.5.

Coastal Water Temperatures

Place Temperature

Stations

Nearby Weather Stations

Station Location Temp. Windchill Dew Point Humidity Wind Precip. Elev Updated Type
                   

Watches & Warnings

There are currently no watches in effect.